createdAt,value
2024-05-09T00:01:30.710Z,100567.98
2024-05-09T00:04:02.618Z,100566.28
2024-05-09T00:06:33.049Z,100564.73
2024-05-09T00:09:04.691Z,100566.52
2024-05-09T00:11:35.126Z,100566.56
2024-05-09T00:14:07.074Z,100570.30
2024-05-09T00:16:37.597Z,100568.55
2024-05-09T00:19:09.145Z,100567.16
2024-05-09T00:21:45.228Z,100565.77
2024-05-09T00:24:16.975Z,100569.27
2024-05-09T00:26:47.604Z,100576.23
2024-05-09T00:29:19.218Z,100583.63
2024-05-09T00:31:49.756Z,100581.20
2024-05-09T00:34:21.594Z,100574.71
2024-05-09T00:36:52.176Z,100576.17
2024-05-09T00:39:23.832Z,100575.88
2024-05-09T00:41:54.150Z,100573.83
2024-05-09T00:44:25.939Z,100572.10
2024-05-09T00:46:57.752Z,100573.70
2024-05-09T00:49:29.605Z,100566.33
2024-05-09T00:52:00.262Z,100562.77
2024-05-09T00:54:31.921Z,100565.08
2024-05-09T00:57:03.583Z,100568.84
2024-05-09T00:59:35.449Z,100570.50
2024-05-09T01:02:05.805Z,100575.88
2024-05-09T01:04:37.686Z,100575.87
2024-05-09T01:07:08.654Z,100577.37
2024-05-09T01:09:40.101Z,100575.88
2024-05-09T01:12:10.745Z,100575.95
2024-05-09T01:14:42.484Z,100574.66
2024-05-09T01:17:12.936Z,100568.15
2024-05-09T01:19:44.765Z,100573.89
2024-05-09T01:22:15.205Z,100577.61
2024-05-09T01:24:46.973Z,100583.54
2024-05-09T01:27:17.294Z,100584.81
2024-05-09T01:29:49.662Z,100582.63
2024-05-09T01:32:19.914Z,100581.64
2024-05-09T01:34:51.816Z,100580.91
2024-05-09T01:37:22.282Z,100581.10
2024-05-09T01:39:53.926Z,100578.98
2024-05-09T01:42:24.262Z,100578.19
2024-05-09T01:44:56.011Z,100578.85
2024-05-09T01:47:26.580Z,100578.45
2024-05-09T01:49:58.738Z,100582.91
2024-05-09T01:52:29.124Z,100583.77
2024-05-09T01:55:04.522Z,100580.31
2024-05-09T01:57:38.486Z,100576.83
2024-05-09T02:00:10.384Z,100579.81
2024-05-09T02:02:46.545Z,100579.92
2024-05-09T02:05:19.571Z,100577.90
2024-05-09T02:07:49.971Z,100579.67
2024-05-09T02:10:26.491Z,100577.16
2024-05-09T02:13:03.983Z,100576.48
2024-05-09T02:15:34.415Z,100573.79
2024-05-09T02:18:07.040Z,100576.04
2024-05-09T02:20:41.289Z,100574.71
2024-05-09T02:23:13.927Z,100572.25
2024-05-09T02:25:44.672Z,100572.38
2024-05-09T02:28:16.488Z,100575.21
2024-05-09T02:30:46.716Z,100569.33
2024-05-09T02:33:18.557Z,100568.21
2024-05-09T02:35:49.096Z,100567.42
2024-05-09T02:38:20.686Z,100570.99
2024-05-09T02:40:51.431Z,100572.97
2024-05-09T02:43:23.123Z,100569.02
2024-05-09T02:45:53.442Z,100571.38
2024-05-09T02:48:25.243Z,100571.99
2024-05-09T02:50:55.550Z,100572.29
2024-05-09T02:53:27.470Z,100575.64
2024-05-09T02:55:57.639Z,100578.63
2024-05-09T02:58:29.265Z,100577.64
2024-05-09T03:00:59.613Z,100580.34
2024-05-09T03:03:31.746Z,100578.63
2024-05-09T03:06:02.584Z,100579.52
2024-05-09T03:08:34.153Z,100580.20
2024-05-09T03:11:05.143Z,100581.99
2024-05-09T03:13:41.461Z,100584.02
2024-05-09T03:16:13.009Z,100583.43
2024-05-09T03:18:43.425Z,100583.66
2024-05-09T03:21:15.147Z,100582.76
2024-05-09T03:23:45.741Z,100585.37
2024-05-09T03:26:18.443Z,100586.87
2024-05-09T03:28:48.621Z,100587.18
2024-05-09T03:31:20.388Z,100586.81
2024-05-09T03:33:50.861Z,100588.30
2024-05-09T03:36:22.660Z,100588.66
2024-05-09T03:38:52.988Z,100587.83
2024-05-09T03:41:25.640Z,100587.48
2024-05-09T03:43:55.927Z,100588.32
2024-05-09T03:46:27.554Z,100588.05
2024-05-09T03:48:58.033Z,100587.39
2024-05-09T03:51:29.728Z,100592.14
2024-05-09T03:54:00.966Z,100587.59
2024-05-09T03:56:32.677Z,100586.83
2024-05-09T03:59:03.176Z,100590.70
2024-05-09T04:01:34.879Z,100594.43
2024-05-09T04:04:05.562Z,100600.71
2024-05-09T04:06:37.289Z,100597.74
2024-05-09T04:09:07.523Z,100599.52
2024-05-09T04:11:39.510Z,100601.40
2024-05-09T04:14:09.920Z,100600.89
2024-05-09T04:16:41.678Z,100599.48
2024-05-09T04:19:12.155Z,100602.21
2024-05-09T04:21:44.003Z,100605.71
2024-05-09T04:24:14.383Z,100606.88
2024-05-09T04:26:46.757Z,100605.61
2024-05-09T04:29:17.262Z,100607.10
2024-05-09T04:31:49.116Z,100613.62
2024-05-09T04:34:19.602Z,100616.98
2024-05-09T04:36:51.645Z,100625.20
2024-05-09T04:39:21.865Z,100626.35
2024-05-09T04:41:53.602Z,100627.52
2024-05-09T04:44:24.079Z,100629.20
2024-05-09T04:46:55.717Z,100627.90
2024-05-09T04:49:26.302Z,100627.86
2024-05-09T04:51:58.085Z,100629.94
2024-05-09T04:54:35.797Z,100633.65
2024-05-09T04:57:08.468Z,100634.65
2024-05-09T04:59:38.668Z,100639.05
2024-05-09T05:02:10.413Z,100639.89
2024-05-09T05:04:41.109Z,100635.31
2024-05-09T05:07:13.040Z,100637.50
2024-05-09T05:09:43.654Z,100639.27
2024-05-09T05:12:33.991Z,100640.55
2024-05-09T05:15:06.220Z,100640.33
2024-05-09T05:17:36.815Z,100640.34
2024-05-09T05:20:12.695Z,100641.77
2024-05-09T05:22:48.000Z,100643.46
2024-05-09T05:25:18.485Z,100645.02
2024-05-09T05:27:50.236Z,100642.35
2024-05-09T05:30:25.257Z,100644.83
2024-05-09T05:33:01.133Z,100644.52
2024-05-09T05:35:31.813Z,100645.94
2024-05-09T05:38:04.052Z,100647.48
2024-05-09T05:40:37.216Z,100644.65
2024-05-09T05:43:16.228Z,100643.39
2024-05-09T05:45:48.318Z,100639.48
2024-05-09T05:48:19.079Z,100640.66
2024-05-09T05:50:50.838Z,100637.59
2024-05-09T05:53:21.447Z,100638.23
2024-05-09T05:55:53.337Z,100640.45
2024-05-09T05:58:23.825Z,100641.58
2024-05-09T06:00:55.510Z,100642.56
2024-05-09T06:03:26.192Z,100641.02
2024-05-09T06:06:01.838Z,100637.77
2024-05-09T06:08:33.668Z,100632.58
2024-05-09T06:11:04.521Z,100634.98
2024-05-09T06:13:36.002Z,100633.48
2024-05-09T06:16:06.820Z,100637.17
2024-05-09T06:18:38.683Z,100637.10
2024-05-09T06:21:09.123Z,100640.20
2024-05-09T06:23:48.504Z,100638.60
2024-05-09T06:26:20.593Z,100639.71
2024-05-09T06:28:50.988Z,100638.95
2024-05-09T06:31:22.717Z,100643.29
2024-05-09T06:33:53.146Z,100641.99
2024-05-09T06:36:24.913Z,100637.35
2024-05-09T06:38:55.423Z,100637.05
2024-05-09T06:41:27.269Z,100635.52
2024-05-09T06:43:57.762Z,100637.76
2024-05-09T06:46:29.784Z,100640.44
2024-05-09T06:49:05.919Z,100636.56
2024-05-09T06:51:43.300Z,100638.50
2024-05-09T06:54:15.192Z,100641.83
2024-05-09T06:56:45.504Z,100641.29
2024-05-09T06:59:17.172Z,100639.83
2024-05-09T07:01:47.660Z,100636.73
2024-05-09T07:04:19.469Z,100635.90
2024-05-09T07:06:49.889Z,100636.66
2024-05-09T07:09:21.435Z,100632.44
2024-05-09T07:11:52.055Z,100634.24
2024-05-09T07:14:24.099Z,100630.09
2024-05-09T07:16:54.755Z,100631.51
2024-05-09T07:19:26.478Z,100629.17
2024-05-09T07:21:58.171Z,100635.07
2024-05-09T07:24:29.721Z,100632.77
2024-05-09T07:27:00.044Z,100633.42
2024-05-09T07:29:32.975Z,100632.27
2024-05-09T07:32:06.710Z,100627.02
2024-05-09T07:34:38.377Z,100629.02
2024-05-09T07:37:12.855Z,100628.13
2024-05-09T07:39:44.479Z,100629.13
2024-05-09T07:42:14.798Z,100628.11
2024-05-09T07:44:46.353Z,100627.67
2024-05-09T07:48:28.921Z,100624.67
2024-05-09T07:53:34.356Z,100622.41
2024-05-09T07:55:35.905Z,100622.33
2024-05-09T07:58:06.338Z,100622.04
2024-05-09T08:00:38.624Z,100620.22
2024-05-09T08:03:10.609Z,100616.68
2024-05-09T08:05:42.327Z,100616.73
2024-05-09T08:08:12.835Z,100616.61
2024-05-09T08:10:44.402Z,100618.02
2024-05-09T08:13:14.997Z,100618.73
2024-05-09T08:15:46.907Z,100619.42
2024-05-09T08:18:17.347Z,100622.40
2024-05-09T08:20:49.964Z,100623.51
2024-05-09T08:23:20.189Z,100612.66
2024-05-09T08:25:53.117Z,100619.85
2024-05-09T08:28:23.641Z,100619.27
2024-05-09T08:30:55.312Z,100619.98
2024-05-09T08:33:26.145Z,100621.25
2024-05-09T08:35:58.574Z,100611.17
2024-05-09T08:38:28.889Z,100609.87
2024-05-09T08:41:02.282Z,100611.95
2024-05-09T08:43:32.549Z,100614.64
2024-05-09T08:46:04.894Z,100610.48
2024-05-09T08:48:36.814Z,100615.55
2024-05-09T08:51:08.398Z,100609.92
2024-05-09T08:53:39.035Z,100605.67
2024-05-09T08:56:10.514Z,100604.94
2024-05-09T08:58:41.006Z,100608.80
2024-05-09T09:01:14.376Z,100609.27
2024-05-09T09:03:45.247Z,100606.19
2024-05-09T09:06:18.534Z,100610.88
2024-05-09T09:08:48.960Z,100609.77
2024-05-09T09:11:20.650Z,100608.62
2024-05-09T09:13:51.652Z,100606.55
2024-05-09T09:16:35.628Z,100605.25
2024-05-09T09:19:07.251Z,100598.99
2024-05-09T09:21:37.833Z,100597.70
2024-05-09T09:24:10.464Z,100600.58
2024-05-09T09:26:41.172Z,100601.10
2024-05-09T09:29:12.850Z,100602.19
2024-05-09T09:31:43.172Z,100601.75
2024-05-09T09:34:14.925Z,100602.71
2024-05-09T09:36:45.739Z,100603.73
2024-05-09T09:39:17.316Z,100601.61
2024-05-09T09:41:47.640Z,100598.27
2024-05-09T09:44:19.199Z,100595.08
2024-05-09T09:46:50.378Z,100597.17
2024-05-09T09:49:26.757Z,100593.75
2024-05-09T09:51:58.602Z,100596.28
2024-05-09T09:54:29.491Z,100592.16
2024-05-09T09:57:01.176Z,100587.12
2024-05-09T09:59:31.685Z,100589.77
2024-05-09T10:02:03.555Z,100583.10
2024-05-09T10:04:34.097Z,100585.56
2024-05-09T10:07:08.690Z,100578.61
2024-05-09T10:09:39.060Z,100581.45
2024-05-09T10:12:11.815Z,100582.29
2024-05-09T10:14:48.442Z,100578.11
2024-05-09T10:17:20.194Z,100573.46
2024-05-09T10:19:51.088Z,100574.93
2024-05-09T10:25:25.218Z,100571.20
2024-05-09T10:27:56.168Z,100571.13
2024-05-09T10:30:34.076Z,100564.02
2024-05-09T10:33:11.138Z,100568.13
2024-05-09T10:35:51.509Z,100564.34
2024-05-09T10:38:23.248Z,100555.09
2024-05-09T10:40:57.163Z,100555.22
2024-05-09T10:43:28.798Z,100550.40
2024-05-09T10:45:59.654Z,100548.64
2024-05-09T10:48:31.212Z,100550.11
2024-05-09T10:51:02.037Z,100548.95
2024-05-09T10:53:43.443Z,100549.52
2024-05-09T10:56:15.300Z,100548.40
2024-05-09T10:58:45.541Z,100547.35
2024-05-09T11:01:17.251Z,100543.56
2024-05-09T11:03:48.668Z,100538.73
2024-05-09T11:06:20.576Z,100535.91
2024-05-09T11:08:50.912Z,100534.67
2024-05-09T11:11:22.670Z,100537.42
2024-05-09T11:13:53.040Z,100534.12
2024-05-09T11:16:24.771Z,100529.38
2024-05-09T11:18:56.772Z,100531.02
2024-05-09T11:21:29.098Z,100535.09
2024-05-09T11:23:59.339Z,100532.85
2024-05-09T11:26:34.228Z,100532.57
2024-05-09T11:29:06.910Z,100528.27
2024-05-09T11:31:49.487Z,100528.60
2024-05-09T11:34:21.237Z,100522.22
2024-05-09T11:36:51.651Z,100523.33
2024-05-09T11:39:23.659Z,100515.39
2024-05-09T11:41:53.987Z,100514.55
2024-05-09T11:44:26.878Z,100518.33
2024-05-09T11:46:57.307Z,100516.40
2024-05-09T11:49:29.192Z,100516.73
2024-05-09T11:51:59.684Z,100511.92
2024-05-09T11:54:31.576Z,100511.17
2024-05-09T11:57:01.888Z,100508.61
2024-05-09T11:59:33.641Z,100509.88
2024-05-09T12:02:04.653Z,100507.10
2024-05-09T12:04:36.466Z,100509.26
2024-05-09T12:07:09.148Z,100508.14
2024-05-09T12:09:42.147Z,100504.70
2024-05-09T12:12:13.651Z,100502.46
2024-05-09T12:14:45.203Z,100503.05
2024-05-09T12:17:15.682Z,100498.02
2024-05-09T12:19:47.637Z,100495.95
2024-05-09T12:22:18.286Z,100490.49
2024-05-09T12:24:50.020Z,100484.97
2024-05-09T12:27:20.698Z,100483.64
2024-05-09T12:29:52.254Z,100477.33
2024-05-09T12:32:22.742Z,100476.84
2024-05-09T12:34:54.445Z,100480.52
2024-05-09T12:37:24.964Z,100476.19
2024-05-09T12:39:57.288Z,100477.51
2024-05-09T12:42:29.088Z,100476.27
2024-05-09T12:45:01.475Z,100475.58
2024-05-09T12:47:31.901Z,100474.71
2024-05-09T12:50:06.458Z,100475.06
2024-05-09T12:52:40.136Z,100468.50
2024-05-09T12:55:11.042Z,100469.89
2024-05-09T12:57:42.642Z,100464.06
2024-05-09T13:00:23.254Z,100460.02
2024-05-09T13:02:59.743Z,100458.29
2024-05-09T13:05:30.612Z,100462.94
2024-05-09T13:08:03.649Z,100460.45
2024-05-09T13:10:35.220Z,100462.73
2024-05-09T13:13:06.842Z,100461.73
2024-05-09T13:15:37.578Z,100459.55
2024-05-09T13:18:09.447Z,100453.95
2024-05-09T13:20:39.942Z,100452.64
2024-05-09T13:23:11.682Z,100448.98
2024-05-09T13:25:42.306Z,100446.68
2024-05-09T13:28:13.992Z,100446.17
2024-05-09T13:30:44.417Z,100440.67
2024-05-09T13:33:16.265Z,100434.21
2024-05-09T13:35:50.157Z,100434.45
2024-05-09T13:38:22.841Z,100433.92
2024-05-09T13:40:53.303Z,100431.42
2024-05-09T13:43:25.827Z,100428.41
2024-05-09T13:45:57.612Z,100429.77
2024-05-09T13:48:29.262Z,100422.91
2024-05-09T13:50:59.790Z,100425.55
2024-05-09T13:53:31.537Z,100425.43
2024-05-09T13:56:01.864Z,100425.50
2024-05-09T13:58:33.607Z,100426.96
2024-05-09T14:01:04.331Z,100427.73
2024-05-09T14:03:36.338Z,100426.05
2024-05-09T14:06:09.405Z,100424.02
2024-05-09T14:08:43.010Z,100422.54
2024-05-09T14:11:13.423Z,100420.31
2024-05-09T14:13:45.290Z,100419.73
2024-05-09T14:16:15.925Z,100419.67
2024-05-09T14:18:47.583Z,100414.02
2024-05-09T14:21:18.007Z,100414.00
2024-05-09T14:23:49.777Z,100410.18
2024-05-09T14:26:20.290Z,100408.10
2024-05-09T14:28:51.939Z,100410.11
2024-05-09T14:31:22.529Z,100410.86
2024-05-09T14:33:54.647Z,100409.09
2024-05-09T14:36:25.064Z,100412.14
2024-05-09T14:38:56.621Z,100409.33
2024-05-09T14:41:26.963Z,100407.30
2024-05-09T14:43:58.803Z,100404.35
2024-05-09T14:46:29.338Z,100399.08
2024-05-09T14:49:00.989Z,100394.38
2024-05-09T14:51:31.558Z,100389.95
2024-05-09T14:54:03.702Z,100390.98
2024-05-09T14:56:34.012Z,100388.75
2024-05-09T14:59:06.998Z,100386.97
2024-05-09T15:01:37.321Z,100382.63
2024-05-09T15:04:09.178Z,100384.05
2024-05-09T15:06:41.104Z,100380.36
2024-05-09T15:09:12.804Z,100379.86
2024-05-09T15:11:44.012Z,100376.27
2024-05-09T15:14:16.103Z,100374.70
2024-05-09T15:16:46.238Z,100377.23
2024-05-09T15:19:18.255Z,100369.86
2024-05-09T15:21:48.712Z,100368.00
2024-05-09T15:24:20.474Z,100372.82
2024-05-09T15:26:51.424Z,100370.95
2024-05-09T15:29:23.075Z,100367.11
2024-05-09T15:31:53.647Z,100367.45
2024-05-09T15:34:25.406Z,100368.89
2024-05-09T15:36:57.626Z,100359.46
2024-05-09T15:39:30.516Z,100356.95
2024-05-09T15:42:02.675Z,100358.21
2024-05-09T15:44:35.370Z,100355.95
2024-05-09T15:47:05.780Z,100347.58
2024-05-09T15:49:37.583Z,100348.20
2024-05-09T15:52:08.209Z,100342.51
2024-05-09T15:54:40.070Z,100343.32
2024-05-09T15:57:10.458Z,100344.66
2024-05-09T15:59:42.219Z,100342.77
2024-05-09T16:02:12.901Z,100344.11
2024-05-09T16:04:44.868Z,100339.71
2024-05-09T16:07:15.264Z,100347.14
2024-05-09T16:09:47.168Z,100345.67
2024-05-09T16:12:17.530Z,100343.49
2024-05-09T16:14:50.841Z,100341.52
2024-05-09T16:17:21.111Z,100341.40
2024-05-09T16:19:52.902Z,100339.61
2024-05-09T16:22:23.669Z,100337.64
2024-05-09T16:24:55.207Z,100339.16
2024-05-09T16:27:26.339Z,100337.20
2024-05-09T16:30:03.981Z,100334.56
2024-05-09T16:32:37.016Z,100333.63
2024-05-09T16:35:07.446Z,100336.77
2024-05-09T16:37:38.989Z,100337.21
2024-05-09T16:40:21.683Z,100339.30
2024-05-09T16:43:03.430Z,100337.64
2024-05-09T16:45:34.080Z,100335.41
2024-05-09T16:48:07.161Z,100338.00
2024-05-09T16:50:38.063Z,100339.63
2024-05-09T16:53:09.541Z,100335.92
2024-05-09T16:55:40.239Z,100335.20
2024-05-09T16:58:12.687Z,100332.98
2024-05-09T17:00:44.252Z,100328.61
2024-05-09T17:03:17.385Z,100330.88
2024-05-09T17:05:48.431Z,100331.67
2024-05-09T17:08:20.461Z,100331.80
2024-05-09T17:10:51.171Z,100334.54
2024-05-09T17:13:23.427Z,100336.48
2024-05-09T17:15:54.065Z,100333.77
2024-05-09T17:18:26.294Z,100332.41
2024-05-09T17:20:56.392Z,100337.44
2024-05-09T17:25:58.363Z,100335.70
2024-05-09T17:28:29.961Z,100334.30
2024-05-09T17:31:00.365Z,100333.98
2024-05-09T17:33:32.461Z,100331.55
2024-05-09T17:36:02.838Z,100331.52
2024-05-09T17:38:34.598Z,100330.70
2024-05-09T17:41:05.256Z,100333.38
2024-05-09T17:43:37.087Z,100332.46
2024-05-09T17:46:08.260Z,100329.96
2024-05-09T17:48:39.945Z,100329.54
2024-05-09T17:51:10.418Z,100327.91
2024-05-09T17:53:42.071Z,100333.06
2024-05-09T17:56:12.707Z,100332.03
2024-05-09T17:58:44.870Z,100334.77
2024-05-09T18:01:15.721Z,100336.92
2024-05-09T18:03:48.740Z,100338.20
2024-05-09T18:06:19.225Z,100340.17
2024-05-09T18:08:50.777Z,100340.92
2024-05-09T18:11:21.440Z,100343.06
2024-05-09T18:13:54.398Z,100345.77
2024-05-09T18:16:24.680Z,100341.85
2024-05-09T18:18:56.616Z,100340.66
2024-05-09T18:21:27.106Z,100345.03
2024-05-09T18:24:00.150Z,100351.85
2024-05-09T18:26:30.624Z,100351.77
2024-05-09T18:29:02.581Z,100353.95
2024-05-09T18:31:32.901Z,100355.08
2024-05-09T18:34:05.818Z,100358.92
2024-05-09T18:36:36.432Z,100368.16
2024-05-09T18:39:07.975Z,100368.09
2024-05-09T18:41:38.400Z,100371.23
2024-05-09T18:44:09.960Z,100371.26
2024-05-09T18:46:40.416Z,100376.77
2024-05-09T18:49:12.497Z,100381.19
2024-05-09T18:51:43.097Z,100384.05
2024-05-09T18:54:15.041Z,100385.23
2024-05-09T18:56:45.162Z,100388.49
2024-05-09T18:59:16.836Z,100392.25
2024-05-09T19:01:47.908Z,100396.11
2024-05-09T19:04:19.729Z,100399.52
2024-05-09T19:06:50.288Z,100398.70
2024-05-09T19:09:22.005Z,100402.20
2024-05-09T19:11:52.416Z,100404.67
2024-05-09T19:14:25.521Z,100408.89
2024-05-09T19:16:55.641Z,100406.20
2024-05-09T19:19:28.327Z,100409.64
2024-05-09T19:21:58.554Z,100412.63
2024-05-09T19:24:30.236Z,100414.34
2024-05-09T19:27:01.951Z,100414.98
2024-05-09T19:29:33.514Z,100414.21
2024-05-09T19:32:04.460Z,100418.40
2024-05-09T19:34:36.042Z,100419.71
2024-05-09T19:37:06.550Z,100422.70
2024-05-09T19:39:38.435Z,100423.38
2024-05-09T19:42:08.835Z,100425.89
2024-05-09T19:44:40.367Z,100427.05
2024-05-09T19:47:10.998Z,100432.11
2024-05-09T19:49:42.799Z,100429.25
2024-05-09T19:52:13.361Z,100430.76
2024-05-09T19:54:49.629Z,100429.61
2024-05-09T19:57:21.257Z,100428.14
2024-05-09T19:59:51.730Z,100430.23
2024-05-09T20:02:23.390Z,100429.84
2024-05-09T20:04:54.038Z,100425.81
2024-05-09T20:07:25.876Z,100431.17
2024-05-09T20:09:56.471Z,100430.28
2024-05-09T20:12:28.397Z,100426.98
2024-05-09T20:14:59.512Z,100425.77
2024-05-09T20:17:31.192Z,100426.39
2024-05-09T20:20:01.921Z,100422.56
2024-05-09T20:22:34.176Z,100424.55
2024-05-09T20:25:05.045Z,100427.95
2024-05-09T20:27:36.519Z,100423.98
2024-05-09T20:30:12.080Z,100423.10
2024-05-09T20:32:46.705Z,100425.56
2024-05-09T20:35:17.280Z,100426.31
2024-05-09T20:37:48.919Z,100425.52
2024-05-09T20:40:26.097Z,100425.77
2024-05-09T20:43:04.832Z,100421.16
2024-05-09T20:45:35.783Z,100420.13
2024-05-09T20:48:09.618Z,100420.69
2024-05-09T20:50:42.480Z,100425.70
2024-05-09T20:53:15.619Z,100424.66
2024-05-09T20:55:47.298Z,100427.94
2024-05-09T20:58:18.976Z,100428.80
2024-05-09T21:00:49.405Z,100424.73
2024-05-09T21:03:20.987Z,100425.38
2024-05-09T21:05:51.843Z,100425.84
2024-05-09T21:08:23.898Z,100426.17
2024-05-09T21:10:54.468Z,100427.92
2024-05-09T21:13:26.356Z,100424.23
2024-05-09T21:15:56.921Z,100420.28
2024-05-09T21:18:28.819Z,100422.37
2024-05-09T21:20:59.356Z,100425.15
2024-05-09T21:23:31.263Z,100422.02
2024-05-09T21:26:01.627Z,100418.20
2024-05-09T21:28:33.316Z,100420.68
2024-05-09T21:31:04.398Z,100420.02
2024-05-09T21:33:37.357Z,100421.54
2024-05-09T21:36:09.243Z,100416.73
2024-05-09T21:38:41.411Z,100416.98
2024-05-09T21:41:12.185Z,100421.01
2024-05-09T21:43:43.635Z,100421.86
2024-05-09T21:46:13.993Z,100417.05
2024-05-09T21:48:46.001Z,100416.60
2024-05-09T21:51:16.544Z,100422.38
2024-05-09T21:53:48.914Z,100422.61
2024-05-09T21:56:19.539Z,100426.17
2024-05-09T21:58:50.992Z,100428.48
2024-05-09T22:01:22.523Z,100426.05
2024-05-09T22:03:54.333Z,100425.84
2024-05-09T22:06:24.930Z,100424.46
2024-05-09T22:08:56.709Z,100425.34
2024-05-09T22:11:27.111Z,100428.81
2024-05-09T22:13:59.013Z,100427.53
2024-05-09T22:16:29.668Z,100424.52
2024-05-09T22:19:01.431Z,100421.98
2024-05-09T22:21:31.940Z,100418.02
2024-05-09T22:24:03.922Z,100419.27
2024-05-09T22:26:36.843Z,100417.60
2024-05-09T22:29:08.295Z,100417.83
2024-05-09T22:31:38.731Z,100417.79
2024-05-09T22:34:10.545Z,100421.93
2024-05-09T22:36:41.125Z,100419.33
2024-05-09T22:39:12.561Z,100419.27
2024-05-09T22:41:43.294Z,100420.52
2024-05-09T22:44:15.056Z,100416.81
2024-05-09T22:46:45.499Z,100418.49
2024-05-09T22:49:17.101Z,100420.70
2024-05-09T22:51:47.806Z,100419.73
2024-05-09T22:54:19.338Z,100418.55
2024-05-09T22:56:49.743Z,100417.86
2024-05-09T22:59:21.605Z,100413.02
2024-05-09T23:01:52.005Z,100413.48
2024-05-09T23:04:24.047Z,100413.65
2024-05-09T23:06:54.564Z,100412.54
2024-05-09T23:09:26.386Z,100413.15
2024-05-09T23:11:56.755Z,100410.63
2024-05-09T23:14:28.563Z,100409.77
2024-05-09T23:16:58.999Z,100412.43
2024-05-09T23:19:31.024Z,100414.27
2024-05-09T23:22:01.480Z,100416.69
2024-05-09T23:24:35.342Z,100415.15
2024-05-09T23:27:05.714Z,100415.99
2024-05-09T23:29:37.179Z,100417.71
2024-05-09T23:32:09.427Z,100412.70
2024-05-09T23:34:40.941Z,100414.98
2024-05-09T23:37:11.386Z,100415.65
2024-05-09T23:39:43.017Z,100414.30
2024-05-09T23:42:13.390Z,100413.55
2024-05-09T23:44:45.156Z,100413.02
2024-05-09T23:47:15.620Z,100407.45
2024-05-09T23:49:47.794Z,100405.94
2024-05-09T23:52:18.144Z,100402.42
2024-05-09T23:54:49.852Z,100400.57
2024-05-09T23:57:20.659Z,100398.67
2024-05-09T23:59:52.129Z,100401.79
